PWSweather.com
Personal Weather Stations
Station Observations
GRD01
Warsaw, LesznoPL 05-084

WarsawLesznoPL 05-084

Lat: 52.257404, Lon: 20.564847

Elevation: 298

Station Type: WH3080

http://pogoda.kampinos.waw.pl

High Low Average
Temperature 84.9°F29.4°C 50.9°F10.5°C 67.0°F19.4°C
Dew Point 57.3°F14.1°C 44.8°F7.1°C 51.2°F10.7°C
Winds 13.0 mph 20.9 kmh Calm Calm 3.0 mph SE4.8 kmh SE
Wind Gusts 23.5 mph37.8 kmh -- 7.0 mph11.3 kmh
Humidity 80% 29% 60%
Pressure 29.65 in1004.1 mb 29.52 in999.7 mb -
Precipitation 0.00 in0.0 mm - -
Hour Temp Dew Point Humidity Winds Wind Gusts Pressure Precip Precip Rate Daily Precip Total
12:00 AM 54.3°F12.4°C 47.6°F8.7°C 78% Calm Calm 1.6 mph2.6 kmh 29.65 in1004.1 mb 0.00 in0.0 mm 0.00 in0.0 mm 0.00 in0.0 mm
12:15 AM 54.1°F12.3°C 48.1°F8.9°C 80% 3.1 mph SE5.0 kmh SE 4.5 mph7.2 kmh 29.65 in1004.1 mb 0.00 in0.0 mm 0.00 in0.0 mm 0.00 in0.0 mm
12:30 AM 54.5°F12.5°C 47.1°F8.4°C 76% 2.2 mph NE3.5 kmh NE 3.1 mph5.0 kmh 29.65 in1004.1 mb 0.00 in0.0 mm 0.00 in0.0 mm 0.00 in0.0 mm
12:45 AM 54.5°F12.5°C 46.7°F8.2°C 75% 1.6 mph E2.6 kmh E 2.2 mph3.5 kmh 29.64 in1003.7 mb 0.00 in0.0 mm 0.00 in0.0 mm 0.00 in0.0 mm
01:00 AM 54.3°F12.4°C 47.6°F8.7°C 78% 1.6 mph E2.6 kmh E 2.2 mph3.5 kmh 29.64 in1003.7 mb 0.00 in0.0 mm 0.00 in0.0 mm 0.00 in0.0 mm
01:15 AM 54.1°F12.3°C 47.4°F8.6°C 78% Calm Calm 2.2 mph3.5 kmh 29.64 in1003.7 mb 0.00 in0.0 mm 0.00 in0.0 mm 0.00 in0.0 mm
01:30 AM 54.0°F12.2°C 46.9°F8.3°C 77% Calm Calm 0.7 mph1.1 kmh 29.64 in1003.7 mb 0.00 in0.0 mm 0.00 in0.0 mm 0.00 in0.0 mm
01:45 AM 54.0°F12.2°C 46.6°F8.1°C 76% 0.7 mph E1.1 kmh E 3.1 mph5.0 kmh 29.64 in1003.7 mb 0.00 in0.0 mm 0.00 in0.0 mm 0.00 in0.0 mm
02:00 AM 54.0°F12.2°C 46.6°F8.1°C 76% 0.7 mph E1.1 kmh E 2.2 mph3.5 kmh 29.64 in1003.7 mb 0.00 in0.0 mm 0.00 in0.0 mm 0.00 in0.0 mm
02:15 AM 53.8°F12.1°C 46.4°F8.0°C 76% 1.6 mph E2.6 kmh E 2.2 mph3.5 kmh 29.64 in1003.7 mb 0.00 in0.0 mm 0.00 in0.0 mm 0.00 in0.0 mm
02:30 AM 53.8°F12.1°C 46.4°F8.0°C 76% 0.7 mph E1.1 kmh E 2.2 mph3.5 kmh 29.63 in1003.4 mb 0.00 in0.0 mm 0.00 in0.0 mm 0.00 in0.0 mm
02:45 AM 53.4°F11.9°C 46.0°F7.8°C 76% 0.7 mph NE1.1 kmh NE 2.2 mph3.5 kmh 29.63 in1003.4 mb 0.00 in0.0 mm 0.00 in0.0 mm 0.00 in0.0 mm
03:00 AM 52.5°F11.4°C 45.2°F7.3°C 76% 0.7 mph NE1.1 kmh NE 2.2 mph3.5 kmh 29.62 in1003.0 mb 0.00 in0.0 mm 0.00 in0.0 mm 0.00 in0.0 mm
03:15 AM 51.8°F11.0°C 44.8°F7.1°C 77% Calm Calm 0.7 mph1.1 kmh 29.63 in1003.4 mb 0.00 in0.0 mm 0.00 in0.0 mm 0.00 in0.0 mm
03:30 AM 51.6°F10.9°C 45.3°F7.4°C 79% 2.2 mph NE3.5 kmh NE 3.1 mph5.0 kmh 29.63 in1003.4 mb 0.00 in0.0 mm 0.00 in0.0 mm 0.00 in0.0 mm
03:45 AM 51.1°F10.6°C 45.1°F7.3°C 80% 1.6 mph NE2.6 kmh NE 3.1 mph5.0 kmh 29.62 in1003.0 mb 0.00 in0.0 mm 0.00 in0.0 mm 0.00 in0.0 mm
04:00 AM 50.9°F10.5°C 44.9°F7.2°C 80% 3.1 mph NE5.0 kmh NE 3.8 mph6.1 kmh 29.62 in1003.0 mb 0.00 in0.0 mm 0.00 in0.0 mm 0.00 in0.0 mm
04:15 AM 51.6°F10.9°C 45.7°F7.6°C 80% 2.2 mph NE3.5 kmh NE 5.4 mph8.7 kmh 29.61 in1002.7 mb 0.00 in0.0 mm 0.00 in0.0 mm 0.00 in0.0 mm
04:30 AM 52.9°F11.6°C 46.5°F8.1°C 79% 2.2 mph E3.5 kmh E 4.5 mph7.2 kmh 29.61 in1002.7 mb 0.00 in0.0 mm 0.00 in0.0 mm 0.00 in0.0 mm
04:45 AM 54.0°F12.2°C 46.6°F8.1°C 76% 3.8 mph ENE6.1 kmh ENE 4.5 mph7.2 kmh 29.61 in1002.7 mb 0.00 in0.0 mm 0.00 in0.0 mm 0.00 in0.0 mm
05:00 AM 54.3°F12.4°C 46.6°F8.1°C 75% 0.7 mph ENE1.1 kmh ENE 3.8 mph6.1 kmh 29.61 in1002.7 mb 0.00 in0.0 mm 0.00 in0.0 mm 0.00 in0.0 mm
05:15 AM 54.7°F12.6°C 45.8°F7.7°C 72% 1.6 mph E2.6 kmh E 4.5 mph7.2 kmh 29.61 in1002.7 mb 0.00 in0.0 mm 0.00 in0.0 mm 0.00 in0.0 mm
05:30 AM 55.2°F12.9°C 46.3°F7.9°C 72% 2.2 mph E3.5 kmh E 6.9 mph11.1 kmh 29.62 in1003.0 mb 0.00 in0.0 mm 0.00 in0.0 mm 0.00 in0.0 mm
05:45 AM 56.1°F13.4°C 47.2°F8.4°C 72% 4.5 mph ENE7.2 kmh ENE 5.4 mph8.7 kmh 29.62 in1003.0 mb 0.00 in0.0 mm 0.00 in0.0 mm 0.00 in0.0 mm
06:00 AM 56.8°F13.8°C 47.9°F8.8°C 72% 4.5 mph E7.2 kmh E 6.0 mph9.7 kmh 29.62 in1003.0 mb 0.00 in0.0 mm 0.00 in0.0 mm 0.00 in0.0 mm
06:15 AM 57.7°F14.3°C 48.8°F9.3°C 72% 6.0 mph ESE9.7 kmh ESE 18.3 mph29.5 kmh 29.62 in1003.0 mb 0.00 in0.0 mm 0.00 in0.0 mm 0.00 in0.0 mm
06:30 AM 58.6°F14.8°C 49.6°F9.8°C 72% 3.1 mph SE5.0 kmh SE 7.6 mph12.2 kmh 29.62 in1003.0 mb 0.00 in0.0 mm 0.00 in0.0 mm 0.00 in0.0 mm
06:45 AM 59.5°F15.3°C 50.5°F10.3°C 72% 0.7 mph SE1.1 kmh SE 6.0 mph9.7 kmh 29.62 in1003.0 mb 0.00 in0.0 mm 0.00 in0.0 mm 0.00 in0.0 mm
07:00 AM 60.3°F15.7°C 50.8°F10.4°C 71% 3.1 mph SE5.0 kmh SE 6.9 mph11.1 kmh 29.62 in1003.0 mb 0.00 in0.0 mm 0.00 in0.0 mm 0.00 in0.0 mm
07:15 AM 61.2°F16.2°C 51.3°F10.7°C 70% 3.8 mph SE6.1 kmh SE 6.9 mph11.1 kmh 29.62 in1003.0 mb 0.00 in0.0 mm 0.00 in0.0 mm 0.00 in0.0 mm
07:30 AM 61.9°F16.6°C 52.0°F11.1°C 70% 4.5 mph ESE7.2 kmh ESE 6.0 mph9.7 kmh 29.62 in1003.0 mb 0.00 in0.0 mm 0.00 in0.0 mm 0.00 in0.0 mm
07:45 AM 63.1°F17.3°C 53.2°F11.8°C 70% 3.8 mph E6.1 kmh E 6.0 mph9.7 kmh 29.62 in1003.0 mb 0.00 in0.0 mm 0.00 in0.0 mm 0.00 in0.0 mm
08:00 AM 64.6°F18.1°C 52.5°F11.4°C 65% 3.8 mph E6.1 kmh E 6.0 mph9.7 kmh 29.61 in1002.7 mb 0.00 in0.0 mm 0.00 in0.0 mm 0.00 in0.0 mm
08:15 AM 66.0°F18.9°C 53.1°F11.7°C 63% 2.2 mph SE3.5 kmh SE 8.3 mph13.4 kmh 29.61 in1002.7 mb 0.00 in0.0 mm 0.00 in0.0 mm 0.00 in0.0 mm
08:30 AM 68.2°F20.1°C 54.2°F12.3°C 61% 6.9 mph SE11.1 kmh SE 8.3 mph13.4 kmh 29.61 in1002.7 mb 0.00 in0.0 mm 0.00 in0.0 mm 0.00 in0.0 mm
08:45 AM 69.4°F20.8°C 54.9°F12.7°C 60% 3.8 mph SSE6.1 kmh SSE 9.2 mph14.8 kmh 29.61 in1002.7 mb 0.00 in0.0 mm 0.00 in0.0 mm 0.00 in0.0 mm
09:00 AM 71.1°F21.7°C 55.5°F13.1°C 58% 2.2 mph SE3.5 kmh SE 7.6 mph12.2 kmh 29.62 in1003.0 mb 0.00 in0.0 mm 0.00 in0.0 mm 0.00 in0.0 mm
09:15 AM 74.5°F23.6°C 55.7°F13.2°C 52% 2.2 mph E3.5 kmh E 6.9 mph11.1 kmh 29.61 in1002.7 mb 0.00 in0.0 mm 0.00 in0.0 mm 0.00 in0.0 mm
09:30 AM 75.4°F24.1°C 56.0°F13.3°C 51% 4.5 mph SE7.2 kmh SE 8.3 mph13.4 kmh 29.60 in1002.4 mb 0.00 in0.0 mm 0.00 in0.0 mm 0.00 in0.0 mm
09:45 AM 75.9°F24.4°C 55.9°F13.3°C 50% 3.1 mph SE5.0 kmh SE 6.0 mph9.7 kmh 29.60 in1002.4 mb 0.00 in0.0 mm 0.00 in0.0 mm 0.00 in0.0 mm
10:00 AM 76.8°F24.9°C 55.1°F12.8°C 47% 6.9 mph SE11.1 kmh SE 9.2 mph14.8 kmh 29.60 in1002.4 mb 0.00 in0.0 mm 0.00 in0.0 mm 0.00 in0.0 mm
10:15 AM 77.4°F25.2°C 55.0°F12.8°C 46% 6.0 mph SSE9.7 kmh SSE 8.3 mph13.4 kmh 29.60 in1002.4 mb 0.00 in0.0 mm 0.00 in0.0 mm 0.00 in0.0 mm
10:30 AM 79.2°F26.2°C 54.1°F12.3°C 42% 4.5 mph S7.2 kmh S 9.2 mph14.8 kmh 29.60 in1002.4 mb 0.00 in0.0 mm 0.00 in0.0 mm 0.00 in0.0 mm
10:45 AM 79.5°F26.4°C 54.4°F12.4°C 42% 8.3 mph ENE13.4 kmh ENE 10.7 mph17.2 kmh 29.59 in1002.0 mb 0.00 in0.0 mm 0.00 in0.0 mm 0.00 in0.0 mm
11:00 AM 79.9°F26.6°C 54.7°F12.6°C 42% 8.3 mph SW13.4 kmh SW 13.6 mph21.9 kmh 29.59 in1002.0 mb 0.00 in0.0 mm 0.00 in0.0 mm 0.00 in0.0 mm
11:15 AM 80.4°F26.9°C 54.6°F12.6°C 41% 5.4 mph SSE8.7 kmh SSE 9.8 mph15.8 kmh 29.59 in1002.0 mb 0.00 in0.0 mm 0.00 in0.0 mm 0.00 in0.0 mm
11:30 AM 80.6°F27.0°C 54.7°F12.6°C 41% 2.2 mph SE3.5 kmh SE 12.1 mph19.5 kmh 29.59 in1002.0 mb 0.00 in0.0 mm 0.00 in0.0 mm 0.00 in0.0 mm
11:45 AM 81.3°F27.4°C 55.4°F13.0°C 41% 3.1 mph SE5.0 kmh SE 14.5 mph23.3 kmh 29.58 in1001.7 mb 0.00 in0.0 mm 0.00 in0.0 mm 0.00 in0.0 mm
12:00 PM 82.2°F27.9°C 51.8°F11.0°C 35% 6.0 mph W9.7 kmh W 13.0 mph20.9 kmh 29.57 in1001.4 mb 0.00 in0.0 mm 0.00 in0.0 mm 0.00 in0.0 mm
12:15 PM 82.0°F27.8°C 52.4°F11.3°C 36% 2.2 mph SE3.5 kmh SE 10.7 mph17.2 kmh 29.57 in1001.4 mb 0.00 in0.0 mm 0.00 in0.0 mm 0.00 in0.0 mm
12:30 PM 82.2°F27.9°C 54.1°F12.3°C 38% 4.5 mph S7.2 kmh S 9.2 mph14.8 kmh 29.57 in1001.4 mb 0.00 in0.0 mm 0.00 in0.0 mm 0.00 in0.0 mm
12:45 PM 82.8°F28.2°C 52.3°F11.3°C 35% 6.0 mph WNW9.7 kmh WNW 9.2 mph14.8 kmh 29.56 in1001.0 mb 0.00 in0.0 mm 0.00 in0.0 mm 0.00 in0.0 mm
01:00 PM 83.1°F28.4°C 51.8°F11.0°C 34% 7.6 mph S12.2 kmh S 9.2 mph14.8 kmh 29.56 in1001.0 mb 0.00 in0.0 mm 0.00 in0.0 mm 0.00 in0.0 mm
01:15 PM 83.5°F28.6°C 52.2°F11.2°C 34% 5.4 mph WNW8.7 kmh WNW 9.2 mph14.8 kmh 29.56 in1001.0 mb 0.00 in0.0 mm 0.00 in0.0 mm 0.00 in0.0 mm
01:30 PM 83.7°F28.7°C 51.5°F10.8°C 33% 3.1 mph SSW5.0 kmh SSW 11.4 mph18.3 kmh 29.55 in1000.7 mb 0.00 in0.0 mm 0.00 in0.0 mm 0.00 in0.0 mm
01:45 PM 83.7°F28.7°C 50.7°F10.4°C 32% 3.1 mph SE5.0 kmh SE 7.6 mph12.2 kmh 29.54 in1000.3 mb 0.00 in0.0 mm 0.00 in0.0 mm 0.00 in0.0 mm
02:00 PM 84.4°F29.1°C 50.4°F10.2°C 31% 4.5 mph E7.2 kmh E 9.2 mph14.8 kmh 29.54 in1000.3 mb 0.00 in0.0 mm 0.00 in0.0 mm 0.00 in0.0 mm
02:15 PM 84.6°F29.2°C 50.6°F10.3°C 31% 9.2 mph SSW14.8 kmh SSW 13.6 mph21.9 kmh 29.53 in1000.0 mb 0.00 in0.0 mm 0.00 in0.0 mm 0.00 in0.0 mm
02:30 PM 84.4°F29.1°C 49.6°F9.8°C 30% 1.6 mph NE2.6 kmh NE 13.6 mph21.9 kmh 29.52 in999.7 mb 0.00 in0.0 mm 0.00 in0.0 mm 0.00 in0.0 mm
02:45 PM 84.7°F29.3°C 50.8°F10.4°C 31% 3.8 mph S6.1 kmh S 8.3 mph13.4 kmh 29.52 in999.7 mb 0.00 in0.0 mm 0.00 in0.0 mm 0.00 in0.0 mm
03:00 PM 84.7°F29.3°C 49.0°F9.4°C 29% 5.4 mph NE8.7 kmh NE 12.1 mph19.5 kmh 29.52 in999.7 mb 0.00 in0.0 mm 0.00 in0.0 mm 0.00 in0.0 mm
03:15 PM 84.9°F29.4°C 50.0°F10.0°C 30% 6.9 mph SW11.1 kmh SW 9.8 mph15.8 kmh 29.52 in999.7 mb 0.00 in0.0 mm 0.00 in0.0 mm 0.00 in0.0 mm
03:30 PM 84.4°F29.1°C 49.6°F9.8°C 30% 1.6 mph SSW2.6 kmh SSW 11.4 mph18.3 kmh 29.52 in999.7 mb 0.00 in0.0 mm 0.00 in0.0 mm 0.00 in0.0 mm
03:45 PM 80.2°F26.8°C 51.6°F10.9°C 37% 8.3 mph NNW13.4 kmh NNW 15.2 mph24.5 kmh 29.53 in1000.0 mb 0.00 in0.0 mm 0.00 in0.0 mm 0.00 in0.0 mm
04:00 PM 73.9°F23.3°C 50.6°F10.3°C 44% 13.0 mph SSW20.9 kmh SSW 23.5 mph37.8 kmh 29.53 in1000.0 mb 0.00 in0.0 mm 0.00 in0.0 mm 0.00 in0.0 mm
04:15 PM 71.8°F22.1°C 51.0°F10.6°C 48% 8.3 mph S13.4 kmh S 16.8 mph27.0 kmh 29.53 in1000.0 mb 0.00 in0.0 mm 0.00 in0.0 mm 0.00 in0.0 mm
04:30 PM 73.0°F22.8°C 53.8°F12.1°C 51% 5.4 mph S8.7 kmh S 11.4 mph18.3 kmh 29.54 in1000.3 mb 0.00 in0.0 mm 0.00 in0.0 mm 0.00 in0.0 mm
04:45 PM 72.0°F22.2°C 56.4°F13.6°C 58% 6.0 mph WSW9.7 kmh WSW 16.8 mph27.0 kmh 29.53 in1000.0 mb 0.00 in0.0 mm 0.00 in0.0 mm 0.00 in0.0 mm
05:00 PM 72.0°F22.2°C 55.9°F13.3°C 57% 2.2 mph SW3.5 kmh SW 10.7 mph17.2 kmh 29.53 in1000.0 mb 0.00 in0.0 mm 0.00 in0.0 mm 0.00 in0.0 mm
05:15 PM 72.0°F22.2°C 57.3°F14.1°C 60% 2.2 mph S3.5 kmh S 6.9 mph11.1 kmh 29.54 in1000.3 mb 0.00 in0.0 mm 0.00 in0.0 mm 0.00 in0.0 mm
05:30 PM 72.0°F22.2°C 57.3°F14.1°C 60% 4.5 mph S7.2 kmh S 6.0 mph9.7 kmh 29.54 in1000.3 mb 0.00 in0.0 mm 0.00 in0.0 mm 0.00 in0.0 mm
05:45 PM 72.1°F22.3°C 56.1°F13.4°C 57% 3.1 mph SSE5.0 kmh SSE 7.6 mph12.2 kmh 29.54 in1000.3 mb 0.00 in0.0 mm 0.00 in0.0 mm 0.00 in0.0 mm
06:00 PM 72.0°F22.2°C 56.8°F13.8°C 59% 4.5 mph SSE7.2 kmh SSE 6.9 mph11.1 kmh 29.54 in1000.3 mb 0.00 in0.0 mm 0.00 in0.0 mm 0.00 in0.0 mm
06:15 PM 71.4°F21.9°C 55.4°F13.0°C 57% 3.1 mph SE5.0 kmh SE 7.6 mph12.2 kmh 29.53 in1000.0 mb 0.00 in0.0 mm 0.00 in0.0 mm 0.00 in0.0 mm
06:30 PM 70.5°F21.4°C 54.1°F12.3°C 56% 3.1 mph SE5.0 kmh SE 7.6 mph12.2 kmh 29.53 in1000.0 mb 0.00 in0.0 mm 0.00 in0.0 mm 0.00 in0.0 mm
06:45 PM 69.6°F20.9°C 53.2°F11.8°C 56% 2.2 mph SSE3.5 kmh SSE 6.9 mph11.1 kmh 29.53 in1000.0 mb 0.00 in0.0 mm 0.00 in0.0 mm 0.00 in0.0 mm
07:00 PM 68.7°F20.4°C 53.8°F12.1°C 59% 3.8 mph S6.1 kmh S 6.9 mph11.1 kmh 29.53 in1000.0 mb 0.00 in0.0 mm 0.00 in0.0 mm 0.00 in0.0 mm
07:15 PM 67.8°F19.9°C 53.4°F11.9°C 60% 3.1 mph SE5.0 kmh SE 4.5 mph7.2 kmh 29.54 in1000.3 mb 0.00 in0.0 mm 0.00 in0.0 mm 0.00 in0.0 mm
07:30 PM 67.1°F19.5°C 52.7°F11.5°C 60% 1.6 mph SE2.6 kmh SE 4.5 mph7.2 kmh 29.55 in1000.7 mb 0.00 in0.0 mm 0.00 in0.0 mm 0.00 in0.0 mm
07:45 PM 66.4°F19.1°C 52.1°F11.2°C 60% 2.2 mph E3.5 kmh E 4.5 mph7.2 kmh 29.54 in1000.3 mb 0.00 in0.0 mm 0.00 in0.0 mm 0.00 in0.0 mm
08:00 PM 65.8°F18.8°C 52.0°F11.1°C 61% 1.6 mph SE2.6 kmh SE 4.5 mph7.2 kmh 29.55 in1000.7 mb 0.00 in0.0 mm 0.00 in0.0 mm 0.00 in0.0 mm
08:15 PM 65.3°F18.5°C 51.5°F10.8°C 61% 1.6 mph E2.6 kmh E 3.8 mph6.1 kmh 29.55 in1000.7 mb 0.00 in0.0 mm 0.00 in0.0 mm 0.00 in0.0 mm
08:30 PM 64.8°F18.2°C 51.4°F10.8°C 62% 1.6 mph E2.6 kmh E 3.1 mph5.0 kmh 29.55 in1000.7 mb 0.00 in0.0 mm 0.00 in0.0 mm 0.00 in0.0 mm
08:45 PM 64.0°F17.8°C 51.2°F10.7°C 63% Calm Calm 2.2 mph3.5 kmh 29.54 in1000.3 mb 0.00 in0.0 mm 0.00 in0.0 mm 0.00 in0.0 mm
09:00 PM 63.1°F17.3°C 52.4°F11.3°C 68% Calm Calm -- 29.54 in1000.3 mb 0.00 in0.0 mm 0.00 in0.0 mm 0.00 in0.0 mm
09:15 PM 62.1°F16.7°C 52.2°F11.2°C 70% 0.7 mph NE1.1 kmh NE 3.8 mph6.1 kmh 29.53 in1000.0 mb 0.00 in0.0 mm 0.00 in0.0 mm 0.00 in0.0 mm
09:30 PM 61.5°F16.4°C 51.6°F10.9°C 70% 3.1 mph NE5.0 kmh NE 3.8 mph6.1 kmh 29.53 in1000.0 mb 0.00 in0.0 mm 0.00 in0.0 mm 0.00 in0.0 mm
09:45 PM 61.3°F16.3°C 51.9°F11.1°C 71% 2.2 mph E3.5 kmh E 3.1 mph5.0 kmh 29.54 in1000.3 mb 0.00 in0.0 mm 0.00 in0.0 mm 0.00 in0.0 mm
10:00 PM 61.2°F16.2°C 51.7°F10.9°C 71% Calm Calm 4.5 mph7.2 kmh 29.55 in1000.7 mb 0.00 in0.0 mm 0.00 in0.0 mm 0.00 in0.0 mm
10:15 PM 61.2°F16.2°C 51.7°F10.9°C 71% 3.8 mph E6.1 kmh E 4.5 mph7.2 kmh 29.54 in1000.3 mb 0.00 in0.0 mm 0.00 in0.0 mm 0.00 in0.0 mm
10:30 PM 61.3°F16.3°C 51.9°F11.1°C 71% 2.2 mph ESE3.5 kmh ESE 3.8 mph6.1 kmh 29.53 in1000.0 mb 0.00 in0.0 mm 0.00 in0.0 mm 0.00 in0.0 mm
10:45 PM 61.2°F16.2°C 52.1°F11.2°C 72% 2.2 mph E3.5 kmh E 3.8 mph6.1 kmh 29.53 in1000.0 mb 0.00 in0.0 mm 0.00 in0.0 mm 0.00 in0.0 mm
11:00 PM 61.3°F16.3°C 52.2°F11.2°C 72% 2.2 mph E3.5 kmh E 5.4 mph8.7 kmh 29.53 in1000.0 mb 0.00 in0.0 mm 0.00 in0.0 mm 0.00 in0.0 mm
11:15 PM 61.5°F16.4°C 52.4°F11.3°C 72% 3.8 mph ENE6.1 kmh ENE 5.4 mph8.7 kmh 29.53 in1000.0 mb 0.00 in0.0 mm 0.00 in0.0 mm 0.00 in0.0 mm
11:30 PM 61.7°F16.5°C 52.2°F11.2°C 71% 1.6 mph E2.6 kmh E 3.8 mph6.1 kmh 29.54 in1000.3 mb 0.00 in0.0 mm 0.00 in0.0 mm 0.00 in0.0 mm
11:45 PM 61.5°F16.4°C 52.0°F11.1°C 71% 1.6 mph NE2.6 kmh NE 3.8 mph6.1 kmh 29.53 in1000.0 mb 0.00 in0.0 mm 0.00 in0.0 mm 0.00 in0.0 mm